Jackson Center, Pennsylvania
Current Conditions -  °F | °C
As of 9:35 AM on Saturday 25 Oct 2014 (Local Time) from KFKL Reporting Station
Broken Clouds Broken Clouds  
Wind Chill: 45°   Ceiling: 9000
Heat Index: 48°   Visibility: 10mi
Dew Point: 41°   Wind: 8mph
Humidity: 76%   Direction: 220°SW
Pressure: 29.91"   Gusts: NA
Location:  41.27°N, 80.14°W
Report Text: KFKL 251335Z 22007KT 10SM BKN090 09/05 A2991 RMK AO1
Loading
Personal Weather Stations






























Interactive Weather Map
Tropical Storm Tracking
New forecast layout! Learn more

10-Day Weather Forecast

Advertisements
Track Severe Weather on mobile